Airport View

Enter AWOS ICAO identifier for current METAR.

ex. KFNL

KEMT 212245Z 20010KT 10SM CLR 33/10 A2919

21 Sep 2019 23:24

Frequency: 118.75

Phone: (626) 444-1107

Other Area AWOS: KMWS - KPOC - KCQT - KFUL

TAF KLGB 211741Z 2118/2218 VRB03KT P6SM SKC FM211900 20007KT P6SM SKC FM212300 29009KT P6SM SKC FM220400 VRB03KT P6SM SKC FM221600 16005KT P6SM SKC